sensor_id;sensor_type;location;lat;lon;timestamp;pressure;altitude;pressure_sealevel;temperature;humidity
2711;BME280;20721;47.402;8.550;2022-08-21T00:01:16;96311;;;20.14;69.81
2711;BME280;20721;47.402;8.550;2022-08-21T00:02:16;96309;;;20.12;69.89
2711;BME280;20721;47.402;8.550;2022-08-21T00:03:15;96310;;;20.10;69.86
2711;BME280;20721;47.402;8.550;2022-08-21T00:04:22;96306;;;20.09;69.99
2711;BME280;20721;47.402;8.550;2022-08-21T00:05:15;96301;;;19.97;70.08
2711;BME280;20721;47.402;8.550;2022-08-21T00:06:15;96304;;;19.92;70.48
2711;BME280;20721;47.402;8.550;2022-08-21T00:07:15;96305;;;19.91;70.53
2711;BME280;20721;47.402;8.550;2022-08-21T00:08:16;96302;;;19.90;70.55
2711;BME280;20721;47.402;8.550;2022-08-21T00:12:15;96298;;;19.88;70.45
2711;BME280;20721;47.402;8.550;2022-08-21T00:13:19;96296;;;19.86;70.48
2711;BME280;20721;47.402;8.550;2022-08-21T00:17:15;96298;;;19.87;70.46
2711;BME280;20721;47.402;8.550;2022-08-21T00:18:15;96297;;;19.88;70.44
2711;BME280;20721;47.402;8.550;2022-08-21T00:19:15;96299;;;19.90;70.35
2711;BME280;20721;47.402;8.550;2022-08-21T00:20:16;96302;;;19.91;70.30
2711;BME280;20721;47.402;8.550;2022-08-21T00:21:15;96303;;;19.92;70.28
2711;BME280;20721;47.402;8.550;2022-08-21T00:22:15;96303;;;19.94;70.25
2711;BME280;20721;47.402;8.550;2022-08-21T00:23:15;96299;;;19.95;70.08
2711;BME280;20721;47.402;8.550;2022-08-21T00:25:15;96302;;;19.97;69.96
2711;BME280;20721;47.402;8.550;2022-08-21T00:26:15;96296;;;19.98;69.87
2711;BME280;20721;47.402;8.550;2022-08-21T00:27:15;96298;;;19.99;69.85
2711;BME280;20721;47.402;8.550;2022-08-21T00:29:15;96300;;;20.00;69.85
2711;BME280;20721;47.402;8.550;2022-08-21T00:32:23;96300;;;20.01;69.74
2711;BME280;20721;47.402;8.550;2022-08-21T00:33:15;96301;;;20.02;69.66
2711;BME280;20721;47.402;8.550;2022-08-21T00:34:15;96301;;;20.03;69.64
2711;BME280;20721;47.402;8.550;2022-08-21T00:35:16;96304;;;20.04;69.71
2711;BME280;20721;47.402;8.550;2022-08-21T00:36:15;96304;;;20.07;69.69
2711;BME280;20721;47.402;8.550;2022-08-21T00:37:15;96306;;;20.08;69.68
2711;BME280;20721;47.402;8.550;2022-08-21T00:38:15;96305;;;20.10;69.67
2711;BME280;20721;47.402;8.550;2022-08-21T00:39:15;96304;;;20.11;69.61
2711;BME280;20721;47.402;8.550;2022-08-21T00:40:17;96305;;;20.12;69.50
2711;BME280;20721;47.402;8.550;2022-08-21T00:41:25;96302;;;20.13;69.49
2711;BME280;20721;47.402;8.550;2022-08-21T00:42:15;96303;;;20.14;69.46
2711;BME280;20721;47.402;8.550;2022-08-21T00:44:15;96301;;;20.15;69.43
2711;BME280;20721;47.402;8.550;2022-08-21T00:45:15;96302;;;20.16;69.38
2711;BME280;20721;47.402;8.550;2022-08-21T00:47:16;96300;;;20.17;69.45
2711;BME280;20721;47.402;8.550;2022-08-21T00:48:15;96297;;;20.18;69.43
2711;BME280;20721;47.402;8.550;2022-08-21T00:49:15;96300;;;20.17;69.41
2711;BME280;20721;47.402;8.550;2022-08-21T00:52:17;96299;;;20.16;69.38
2711;BME280;20721;47.402;8.550;2022-08-21T00:53:15;96299;;;20.15;69.37
2711;BME280;20721;47.402;8.550;2022-08-21T00:54:20;96303;;;20.13;69.40
2711;BME280;20721;47.402;8.550;2022-08-21T00:55:16;96301;;;20.11;69.45
2711;BME280;20721;47.402;8.550;2022-08-21T00:56:17;96297;;;20.10;69.47
2711;BME280;20721;47.402;8.550;2022-08-21T00:58:17;96303;;;20.09;69.53
2711;BME280;20721;47.402;8.550;2022-08-21T00:59:16;96304;;;20.08;69.53
2711;BME280;20721;47.402;8.550;2022-08-21T01:00:17;96301;;;20.09;69.52
2711;BME280;20721;47.402;8.550;2022-08-21T01:01:15;96305;;;20.07;69.51
2711;BME280;20721;47.402;8.550;2022-08-21T01:03:17;96303;;;20.06;69.50
2711;BME280;20721;47.402;8.550;2022-08-21T01:04:16;96306;;;20.00;69.59
2711;BME280;20721;47.402;8.550;2022-08-21T01:05:16;96305;;;19.96;69.74
2711;BME280;20721;47.402;8.550;2022-08-21T01:06:15;96301;;;19.92;69.96
2711;BME280;20721;47.402;8.550;2022-08-21T01:07:15;96300;;;19.88;69.95
2711;BME280;20721;47.402;8.550;2022-08-21T01:08:15;96298;;;19.77;70.30
2711;BME280;20721;47.402;8.550;2022-08-21T01:09:15;96295;;;19.73;70.42
2711;BME280;20721;47.402;8.550;2022-08-21T01:10:24;96294;;;19.72;70.59
2711;BME280;20721;47.402;8.550;2022-08-21T01:12:15;96291;;;19.74;70.69
2711;BME280;20721;47.402;8.550;2022-08-21T01:13:17;96291;;;19.76;70.70
2711;BME280;20721;47.402;8.550;2022-08-21T01:14:15;96287;;;19.77;70.67
2711;BME280;20721;47.402;8.550;2022-08-21T01:15:15;96289;;;19.78;70.67
2711;BME280;20721;47.402;8.550;2022-08-21T01:16:17;96287;;;19.81;70.66
2711;BME280;20721;47.402;8.550;2022-08-21T01:17:15;96281;;;19.83;70.66
2711;BME280;20721;47.402;8.550;2022-08-21T01:18:15;96287;;;19.86;70.62
2711;BME280;20721;47.402;8.550;2022-08-21T01:19:17;96281;;;19.89;70.58
2711;BME280;20721;47.402;8.550;2022-08-21T01:20:16;96282;;;19.92;70.49
2711;BME280;20721;47.402;8.550;2022-08-21T01:21:17;96282;;;19.94;70.40
2711;BME280;20721;47.402;8.550;2022-08-21T01:22:15;96280;;;19.96;70.23
2711;BME280;20721;47.402;8.550;2022-08-21T01:23:15;96281;;;19.97;70.16
2711;BME280;20721;47.402;8.550;2022-08-21T01:26:17;96277;;;19.98;70.14
2711;BME280;20721;47.402;8.550;2022-08-21T01:29:33;96275;;;19.99;70.20
2711;BME280;20721;47.402;8.550;2022-08-21T01:30:18;96277;;;20.00;70.05
2711;BME280;20721;47.402;8.550;2022-08-21T01:32:16;96274;;;20.01;70.10
2711;BME280;20721;47.402;8.550;2022-08-21T01:34:16;96272;;;20.00;70.05
2711;BME280;20721;47.402;8.550;2022-08-21T01:35:16;96270;;;19.99;70.12
2711;BME280;20721;47.402;8.550;2022-08-21T01:38:15;96265;;;20.01;70.17
2711;BME280;20721;47.402;8.550;2022-08-21T01:41:15;96261;;;20.02;70.07
2711;BME280;20721;47.402;8.550;2022-08-21T01:42:15;96262;;;20.00;70.07
2711;BME280;20721;47.402;8.550;2022-08-21T01:44:15;96258;;;20.02;70.13
2711;BME280;20721;47.402;8.550;2022-08-21T01:45:15;96259;;;20.03;69.97
2711;BME280;20721;47.402;8.550;2022-08-21T01:46:15;96259;;;20.04;69.90
2711;BME280;20721;47.402;8.550;2022-08-21T01:48:15;96258;;;20.05;69.84
2711;BME280;20721;47.402;8.550;2022-08-21T01:49:15;96259;;;20.04;69.70
2711;BME280;20721;47.402;8.550;2022-08-21T01:50:16;96255;;;20.00;69.87
2711;BME280;20721;47.402;8.550;2022-08-21T01:53:15;96252;;;19.99;69.84
2711;BME280;20721;47.402;8.550;2022-08-21T01:54:15;96251;;;19.98;69.82
2711;BME280;20721;47.402;8.550;2022-08-21T01:55:16;96250;;;19.97;69.45
2711;BME280;20721;47.402;8.550;2022-08-21T01:56:16;96245;;;19.94;69.77
2711;BME280;20721;47.402;8.550;2022-08-21T01:57:15;96249;;;19.92;69.87
2711;BME280;20721;47.402;8.550;2022-08-21T01:58:15;96250;;;19.90;69.95
2711;BME280;20721;47.402;8.550;2022-08-21T01:59:15;96250;;;19.91;70.10
2711;BME280;20721;47.402;8.550;2022-08-21T02:00:17;96247;;;19.92;70.12
2711;BME280;20721;47.402;8.550;2022-08-21T02:01:15;96247;;;19.94;69.86
2711;BME280;20721;47.402;8.550;2022-08-21T02:02:15;96248;;;19.95;69.83
2711;BME280;20721;47.402;8.550;2022-08-21T02:04:15;96245;;;19.90;69.74
2711;BME280;20721;47.402;8.550;2022-08-21T02:05:15;96242;;;19.88;70.00
2711;BME280;20721;47.402;8.550;2022-08-21T02:06:17;96242;;;19.89;70.05
2711;BME280;20721;47.402;8.550;2022-08-21T02:07:15;96240;;;19.91;69.98
2711;BME280;20721;47.402;8.550;2022-08-21T02:08:15;96238;;;19.88;70.03
2711;BME280;20721;47.402;8.550;2022-08-21T02:09:16;96238;;;19.89;69.96
2711;BME280;20721;47.402;8.550;2022-08-21T02:10:17;96239;;;19.91;69.78
2711;BME280;20721;47.402;8.550;2022-08-21T02:11:15;96234;;;19.90;69.69
2711;BME280;20721;47.402;8.550;2022-08-21T02:12:15;96234;;;19.88;69.59
2711;BME280;20721;47.402;8.550;2022-08-21T02:13:15;96234;;;19.85;69.48
2711;BME280;20721;47.402;8.550;2022-08-21T02:14:25;96231;;;19.82;69.67
2711;BME280;20721;47.402;8.550;2022-08-21T02:15:15;96231;;;19.81;69.72
2711;BME280;20721;47.402;8.550;2022-08-21T02:17:15;96233;;;19.80;69.77
2711;BME280;20721;47.402;8.550;2022-08-21T02:21:15;96235;;;19.81;69.82
2711;BME280;20721;47.402;8.550;2022-08-21T02:23:15;96233;;;19.82;69.75
2711;BME280;20721;47.402;8.550;2022-08-21T02:25:16;96234;;;19.80;69.76
2711;BME280;20721;47.402;8.550;2022-08-21T02:26:15;96235;;;19.78;69.79
2711;BME280;20721;47.402;8.550;2022-08-21T02:27:15;96234;;;19.76;69.75
2711;BME280;20721;47.402;8.550;2022-08-21T02:28:15;96233;;;19.73;69.84
2711;BME280;20721;47.402;8.550;2022-08-21T02:30:17;96233;;;19.75;70.00
2711;BME280;20721;47.402;8.550;2022-08-21T02:32:16;96234;;;19.74;69.88
2711;BME280;20721;47.402;8.550;2022-08-21T02:33:16;96229;;;19.72;69.97
2711;BME280;20721;47.402;8.550;2022-08-21T02:34:15;96233;;;19.71;69.96
2711;BME280;20721;47.402;8.550;2022-08-21T02:35:15;96231;;;19.69;70.00
2711;BME280;20721;47.402;8.550;2022-08-21T02:36:15;96230;;;19.66;70.09
2711;BME280;20721;47.402;8.550;2022-08-21T02:37:15;96231;;;19.65;70.26
2711;BME280;20721;47.402;8.550;2022-08-21T02:38:17;96230;;;19.67;70.26
2711;BME280;20721;47.402;8.550;2022-08-21T02:40:16;96231;;;19.68;70.31
2711;BME280;20721;47.402;8.550;2022-08-21T02:41:17;96233;;;19.70;70.24
2711;BME280;20721;47.402;8.550;2022-08-21T02:42:15;96236;;;19.72;70.21
2711;BME280;20721;47.402;8.550;2022-08-21T02:43:16;96231;;;19.73;70.16
2711;BME280;20721;47.402;8.550;2022-08-21T02:44:15;96233;;;19.74;70.14
2711;BME280;20721;47.402;8.550;2022-08-21T02:45:16;96234;;;19.75;70.09
2711;BME280;20721;47.402;8.550;2022-08-21T02:46:16;96233;;;19.74;70.07
2711;BME280;20721;47.402;8.550;2022-08-21T02:47:15;96236;;;19.73;70.08
2711;BME280;20721;47.402;8.550;2022-08-21T02:48:17;96237;;;19.74;69.96
2711;BME280;20721;47.402;8.550;2022-08-21T02:49:15;96237;;;19.73;69.97
2711;BME280;20721;47.402;8.550;2022-08-21T02:50:17;96234;;;19.72;70.01
2711;BME280;20721;47.402;8.550;2022-08-21T02:52:15;96231;;;19.71;70.08
2711;BME280;20721;47.402;8.550;2022-08-21T02:53:16;96232;;;19.72;70.12
2711;BME280;20721;47.402;8.550;2022-08-21T02:54:15;96231;;;19.73;70.13
2711;BME280;20721;47.402;8.550;2022-08-21T02:57:15;96226;;;19.72;69.98
2711;BME280;20721;47.402;8.550;2022-08-21T02:58:16;96225;;;19.73;70.01
2711;BME280;20721;47.402;8.550;2022-08-21T03:01:15;96226;;;19.70;69.90
2711;BME280;20721;47.402;8.550;2022-08-21T03:02:15;96223;;;19.67;69.84
2711;BME280;20721;47.402;8.550;2022-08-21T03:03:15;96223;;;19.65;69.96
2711;BME280;20721;47.402;8.550;2022-08-21T03:04:15;96223;;;19.64;70.02
2711;BME280;20721;47.402;8.550;2022-08-21T03:05:16;96222;;;19.61;70.12
2711;BME280;20721;47.402;8.550;2022-08-21T03:06:16;96221;;;19.59;70.16
2711;BME280;20721;47.402;8.550;2022-08-21T03:08:15;96219;;;19.61;70.25
2711;BME280;20721;47.402;8.550;2022-08-21T03:09:15;96219;;;19.62;70.19
2711;BME280;20721;47.402;8.550;2022-08-21T03:10:16;96218;;;19.63;70.00
2711;BME280;20721;47.402;8.550;2022-08-21T03:11:15;96219;;;19.61;70.00
2711;BME280;20721;47.402;8.550;2022-08-21T03:12:15;96217;;;19.59;70.00
2711;BME280;20721;47.402;8.550;2022-08-21T03:13:16;96222;;;19.58;70.10
2711;BME280;20721;47.402;8.550;2022-08-21T03:15:19;96220;;;19.59;70.01
2711;BME280;20721;47.402;8.550;2022-08-21T03:16:15;96219;;;19.57;69.96
2711;BME280;20721;47.402;8.550;2022-08-21T03:17:15;96222;;;19.56;70.04
2711;BME280;20721;47.402;8.550;2022-08-21T03:18:15;96221;;;19.55;70.13
2711;BME280;20721;47.402;8.550;2022-08-21T03:19:15;96225;;;19.57;70.18
2711;BME280;20721;47.402;8.550;2022-08-21T03:20:16;96222;;;19.58;70.09
2711;BME280;20721;47.402;8.550;2022-08-21T03:21:15;96224;;;19.57;69.90
2711;BME280;20721;47.402;8.550;2022-08-21T03:25:16;96229;;;19.55;69.82
2711;BME280;20721;47.402;8.550;2022-08-21T03:26:17;96226;;;19.52;69.78
2711;BME280;20721;47.402;8.550;2022-08-21T03:27:16;96226;;;19.51;69.90
2711;BME280;20721;47.402;8.550;2022-08-21T03:29:15;96229;;;19.49;69.86
2711;BME280;20721;47.402;8.550;2022-08-21T03:30:17;96229;;;19.47;69.88
2711;BME280;20721;47.402;8.550;2022-08-21T03:31:17;96230;;;19.46;69.88
2711;BME280;20721;47.402;8.550;2022-08-21T03:32:15;96229;;;19.44;69.96
2711;BME280;20721;47.402;8.550;2022-08-21T03:33:16;96227;;;19.42;69.94
2711;BME280;20721;47.402;8.550;2022-08-21T03:34:15;96233;;;19.41;70.04
2711;BME280;20721;47.402;8.550;2022-08-21T03:36:15;96233;;;19.40;70.06
2711;BME280;20721;47.402;8.550;2022-08-21T03:38:15;96233;;;19.39;70.04
2711;BME280;20721;47.402;8.550;2022-08-21T03:39:16;96231;;;19.41;70.04
2711;BME280;20721;47.402;8.550;2022-08-21T03:41:15;96232;;;19.43;70.04
2711;BME280;20721;47.402;8.550;2022-08-21T03:42:15;96226;;;19.44;69.96
2711;BME280;20721;47.402;8.550;2022-08-21T03:43:16;96228;;;19.45;69.76
2711;BME280;20721;47.402;8.550;2022-08-21T03:44:16;96226;;;19.46;69.76
2711;BME280;20721;47.402;8.550;2022-08-21T03:46:15;96226;;;19.44;69.56
2711;BME280;20721;47.402;8.550;2022-08-21T03:47:15;96223;;;19.42;69.52
2711;BME280;20721;47.402;8.550;2022-08-21T03:48:15;96223;;;19.40;69.59
2711;BME280;20721;47.402;8.550;2022-08-21T03:49:15;96222;;;19.39;69.62
2711;BME280;20721;47.402;8.550;2022-08-21T03:50:17;96223;;;19.37;69.69
2711;BME280;20721;47.402;8.550;2022-08-21T03:52:16;96223;;;19.36;69.73
2711;BME280;20721;47.402;8.550;2022-08-21T03:56:16;96223;;;19.34;69.56
2711;BME280;20721;47.402;8.550;2022-08-21T03:57:16;96218;;;19.33;69.58
2711;BME280;20721;47.402;8.550;2022-08-21T03:58:17;96221;;;19.35;69.61
2711;BME280;20721;47.402;8.550;2022-08-21T03:59:16;96220;;;19.36;69.69
2711;BME280;20721;47.402;8.550;2022-08-21T04:00:16;96220;;;19.37;69.66
2711;BME280;20721;47.402;8.550;2022-08-21T04:01:15;96222;;;19.38;69.54
2711;BME280;20721;47.402;8.550;2022-08-21T04:02:17;96222;;;19.39;69.47
2711;BME280;20721;47.402;8.550;2022-08-21T04:03:16;96219;;;19.38;69.47
2711;BME280;20721;47.402;8.550;2022-08-21T04:04:15;96219;;;19.39;69.47
2711;BME280;20721;47.402;8.550;2022-08-21T04:05:25;96221;;;19.40;69.50
2711;BME280;20721;47.402;8.550;2022-08-21T04:06:15;96220;;;19.41;69.51
2711;BME280;20721;47.402;8.550;2022-08-21T04:07:16;96222;;;19.43;69.45
2711;BME280;20721;47.402;8.550;2022-08-21T04:08:18;96222;;;19.44;69.33
2711;BME280;20721;47.402;8.550;2022-08-21T04:09:16;96223;;;19.45;69.25
2711;BME280;20721;47.402;8.550;2022-08-21T04:12:15;96223;;;19.43;69.14
2711;BME280;20721;47.402;8.550;2022-08-21T04:15:16;96225;;;19.42;69.05
2711;BME280;20721;47.402;8.550;2022-08-21T04:16:15;96226;;;19.41;69.01
2711;BME280;20721;47.402;8.550;2022-08-21T04:17:15;96225;;;19.39;68.94
2711;BME280;20721;47.402;8.550;2022-08-21T04:19:16;96226;;;19.38;68.96
2711;BME280;20721;47.402;8.550;2022-08-21T04:20:16;96227;;;19.35;69.05
2711;BME280;20721;47.402;8.550;2022-08-21T04:22:16;96223;;;19.34;69.09
2711;BME280;20721;47.402;8.550;2022-08-21T04:23:25;96223;;;19.33;69.01
2711;BME280;20721;47.402;8.550;2022-08-21T04:25:16;96222;;;19.32;69.06
2711;BME280;20721;47.402;8.550;2022-08-21T04:26:16;96221;;;19.30;69.13
2711;BME280;20721;47.402;8.550;2022-08-21T04:27:16;96223;;;19.28;69.19
2711;BME280;20721;47.402;8.550;2022-08-21T04:30:16;96221;;;19.27;69.21
2711;BME280;20721;47.402;8.550;2022-08-21T04:33:15;96224;;;19.26;69.13
2711;BME280;20721;47.402;8.550;2022-08-21T04:34:15;96227;;;19.25;69.11
2711;BME280;20721;47.402;8.550;2022-08-21T04:35:17;96224;;;19.24;69.01
2711;BME280;20721;47.402;8.550;2022-08-21T04:36:16;96226;;;19.22;68.93
2711;BME280;20721;47.402;8.550;2022-08-21T04:37:16;96230;;;19.19;68.96
2711;BME280;20721;47.402;8.550;2022-08-21T04:38:16;96225;;;19.14;69.01
2711;BME280;20721;47.402;8.550;2022-08-21T04:39:16;96227;;;19.10;69.10
2711;BME280;20721;47.402;8.550;2022-08-21T04:40:16;96229;;;19.07;69.15
2711;BME280;20721;47.402;8.550;2022-08-21T04:41:16;96225;;;19.02;69.13
2711;BME280;20721;47.402;8.550;2022-08-21T04:42:16;96227;;;18.97;69.22
2711;BME280;20721;47.402;8.550;2022-08-21T04:43:16;96225;;;18.93;69.28
2711;BME280;20721;47.402;8.550;2022-08-21T04:44:16;96230;;;18.87;69.36
2711;BME280;20721;47.402;8.550;2022-08-21T04:45:17;96233;;;18.83;69.52
2711;BME280;20721;47.402;8.550;2022-08-21T04:46:16;96235;;;18.78;69.67
2711;BME280;20721;47.402;8.550;2022-08-21T04:47:17;96232;;;18.73;69.71
2711;BME280;20721;47.402;8.550;2022-08-21T04:48:17;96232;;;18.68;69.83
2711;BME280;20721;47.402;8.550;2022-08-21T04:49:16;96232;;;18.65;69.99
2711;BME280;20721;47.402;8.550;2022-08-21T04:51:17;96233;;;18.64;70.07
2711;BME280;20721;47.402;8.550;2022-08-21T04:52:17;96232;;;18.63;70.12
2711;BME280;20721;47.402;8.550;2022-08-21T04:54:19;96235;;;18.64;70.20
2711;BME280;20721;47.402;8.550;2022-08-21T04:55:16;96236;;;18.66;70.12
2711;BME280;20721;47.402;8.550;2022-08-21T04:56:20;96239;;;18.65;70.09
2711;BME280;20721;47.402;8.550;2022-08-21T04:57:16;96234;;;18.62;70.02
2711;BME280;20721;47.402;8.550;2022-08-21T05:00:18;96240;;;18.63;69.99
2711;BME280;20721;47.402;8.550;2022-08-21T05:02:16;96241;;;18.64;70.07
2711;BME280;20721;47.402;8.550;2022-08-21T05:04:17;96242;;;18.63;69.85
2711;BME280;20721;47.402;8.550;2022-08-21T05:05:16;96243;;;18.57;69.66
2711;BME280;20721;47.402;8.550;2022-08-21T05:06:16;96243;;;18.48;69.92
2711;BME280;20721;47.402;8.550;2022-08-21T05:07:20;96242;;;18.41;70.24
2711;BME280;20721;47.402;8.550;2022-08-21T05:08:17;96240;;;18.36;70.57
2711;BME280;20721;47.402;8.550;2022-08-21T05:13:16;96247;;;18.37;70.89
2711;BME280;20721;47.402;8.550;2022-08-21T05:14:16;96248;;;18.35;70.81
2711;BME280;20721;47.402;8.550;2022-08-21T05:15:17;96248;;;18.36;70.82
2711;BME280;20721;47.402;8.550;2022-08-21T05:17:16;96248;;;18.35;70.74
2711;BME280;20721;47.402;8.550;2022-08-21T05:18:16;96246;;;18.34;70.84
2711;BME280;20721;47.402;8.550;2022-08-21T05:20:16;96249;;;18.35;70.83
2711;BME280;20721;47.402;8.550;2022-08-21T05:21:16;96245;;;18.37;70.70
2711;BME280;20721;47.402;8.550;2022-08-21T05:23:16;96253;;;18.39;70.68
2711;BME280;20721;47.402;8.550;2022-08-21T05:25:16;96251;;;18.35;70.44
2711;BME280;20721;47.402;8.550;2022-08-21T05:26:18;96253;;;18.33;70.61
2711;BME280;20721;47.402;8.550;2022-08-21T05:27:18;96256;;;18.31;70.55
2711;BME280;20721;47.402;8.550;2022-08-21T05:28:16;96258;;;18.27;70.26
2711;BME280;20721;47.402;8.550;2022-08-21T05:29:16;96260;;;18.23;70.52
2711;BME280;20721;47.402;8.550;2022-08-21T05:30:16;96259;;;18.22;70.65
2711;BME280;20721;47.402;8.550;2022-08-21T05:31:16;96259;;;18.21;70.66
2711;BME280;20721;47.402;8.550;2022-08-21T05:33:16;96264;;;18.23;70.54
2711;BME280;20721;47.402;8.550;2022-08-21T05:34:19;96263;;;18.21;70.75
2711;BME280;20721;47.402;8.550;2022-08-21T05:36:16;96261;;;18.22;70.84
2711;BME280;20721;47.402;8.550;2022-08-21T05:37:16;96262;;;18.26;70.88
2711;BME280;20721;47.402;8.550;2022-08-21T05:38:19;96264;;;18.30;70.85
2711;BME280;20721;47.402;8.550;2022-08-21T05:39:16;96262;;;18.34;70.65
2711;BME280;20721;47.402;8.550;2022-08-21T05:40:23;96264;;;18.35;70.65
2711;BME280;20721;47.402;8.550;2022-08-21T05:41:16;96260;;;18.37;70.58
2711;BME280;20721;47.402;8.550;2022-08-21T05:42:16;96268;;;18.36;70.74
2711;BME280;20721;47.402;8.550;2022-08-21T05:43:16;96261;;;18.34;70.81
2711;BME280;20721;47.402;8.550;2022-08-21T05:44:16;96260;;;18.35;70.94
2711;BME280;20721;47.402;8.550;2022-08-21T05:45:27;96257;;;18.37;70.95
2711;BME280;20721;47.402;8.550;2022-08-21T05:46:16;96256;;;18.36;70.87
2711;BME280;20721;47.402;8.550;2022-08-21T05:47:16;96258;;;18.34;70.98
2711;BME280;20721;47.402;8.550;2022-08-21T05:48:18;96257;;;18.35;71.27
2711;BME280;20721;47.402;8.550;2022-08-21T05:49:16;96256;;;18.40;71.08
2711;BME280;20721;47.402;8.550;2022-08-21T05:50:16;96254;;;18.42;70.85
2711;BME280;20721;47.402;8.550;2022-08-21T05:51:16;96253;;;18.43;nan
2711;BME280;20721;47.402;8.550;2022-08-21T05:52:20;96258;;;18.44;70.74
2711;BME280;20721;47.402;8.550;2022-08-21T05:53:16;96258;;;18.42;70.60
2711;BME280;20721;47.402;8.550;2022-08-21T05:55:16;96256;;;18.41;70.54
2711;BME280;20721;47.402;8.550;2022-08-21T05:56:16;96259;;;18.43;70.70
2711;BME280;20721;47.402;8.550;2022-08-21T05:57:16;96259;;;18.42;70.76
2711;BME280;20721;47.402;8.550;2022-08-21T05:58:17;96259;;;18.43;70.82
2711;BME280;20721;47.402;8.550;2022-08-21T05:59:16;96259;;;18.45;70.79
2711;BME280;20721;47.402;8.550;2022-08-21T06:00:16;96260;;;18.46;70.70
2711;BME280;20721;47.402;8.550;2022-08-21T06:02:17;96258;;;18.51;70.89
2711;BME280;20721;47.402;8.550;2022-08-21T06:03:19;96257;;;18.55;70.63
2711;BME280;20721;47.402;8.550;2022-08-21T06:04:16;96258;;;18.58;70.60
2711;BME280;20721;47.402;8.550;2022-08-21T06:05:25;96259;;;18.60;70.41
2711;BME280;20721;47.402;8.550;2022-08-21T06:06:16;96259;;;18.61;70.46
2711;BME280;20721;47.402;8.550;2022-08-21T06:07:16;96263;;;18.66;70.54
2711;BME280;20721;47.402;8.550;2022-08-21T06:08:17;96264;;;18.71;70.45
2711;BME280;20721;47.402;8.550;2022-08-21T06:09:16;96266;;;18.79;70.49
2711;BME280;20721;47.402;8.550;2022-08-21T06:10:16;96261;;;18.87;70.40
2711;BME280;20721;47.402;8.550;2022-08-21T06:11:16;96261;;;18.94;70.16
2711;BME280;20721;47.402;8.550;2022-08-21T06:12:16;96262;;;18.99;69.96
2711;BME280;20721;47.402;8.550;2022-08-21T06:13:16;96265;;;19.06;69.64
2711;BME280;20721;47.402;8.550;2022-08-21T06:14:16;96265;;;19.07;69.40
2711;BME280;20721;47.402;8.550;2022-08-21T06:16:16;96259;;;19.09;69.19
2711;BME280;20721;47.402;8.550;2022-08-21T06:17:16;96260;;;19.11;68.99
2711;BME280;20721;47.402;8.550;2022-08-21T06:18:16;96258;;;19.10;68.85
2711;BME280;20721;47.402;8.550;2022-08-21T06:19:16;96262;;;19.13;68.79
2711;BME280;20721;47.402;8.550;2022-08-21T06:20:16;96261;;;19.15;68.68
2711;BME280;20721;47.402;8.550;2022-08-21T06:21:16;96258;;;19.18;68.70
2711;BME280;20721;47.402;8.550;2022-08-21T06:22:16;96258;;;19.19;68.71
2711;BME280;20721;47.402;8.550;2022-08-21T06:23:16;96261;;;19.22;68.04
2711;BME280;20721;47.402;8.550;2022-08-21T06:24:16;96258;;;19.19;68.08
2711;BME280;20721;47.402;8.550;2022-08-21T06:26:16;96254;;;19.20;68.30
2711;BME280;20721;47.402;8.550;2022-08-21T06:27:17;96255;;;19.22;68.21
2711;BME280;20721;47.402;8.550;2022-08-21T06:28:16;96257;;;19.26;68.38
2711;BME280;20721;47.402;8.550;2022-08-21T06:29:16;96258;;;19.30;68.13
2711;BME280;20721;47.402;8.550;2022-08-21T06:30:16;96260;;;19.35;68.01
2711;BME280;20721;47.402;8.550;2022-08-21T06:31:17;96264;;;19.37;67.86
2711;BME280;20721;47.402;8.550;2022-08-21T06:32:16;96263;;;19.41;67.81
2711;BME280;20721;47.402;8.550;2022-08-21T06:33:18;96268;;;19.43;67.60
2711;BME280;20721;47.402;8.550;2022-08-21T06:35:16;96266;;;19.46;67.42
2711;BME280;20721;47.402;8.550;2022-08-21T06:36:16;96267;;;19.49;67.24
2711;BME280;20721;47.402;8.550;2022-08-21T06:37:16;96267;;;19.51;67.25
2711;BME280;20721;47.402;8.550;2022-08-21T06:38:16;96270;;;19.57;67.46
2711;BME280;20721;47.402;8.550;2022-08-21T06:39:25;96266;;;19.67;67.31
2711;BME280;20721;47.402;8.550;2022-08-21T06:40:16;96267;;;19.78;67.19
2711;BME280;20721;47.402;8.550;2022-08-21T06:41:16;96263;;;19.85;66.44
2711;BME280;20721;47.402;8.550;2022-08-21T06:42:16;96262;;;19.91;66.27
2711;BME280;20721;47.402;8.550;2022-08-21T06:43:17;96262;;;19.95;66.06
2711;BME280;20721;47.402;8.550;2022-08-21T06:44:16;96263;;;20.01;66.07
2711;BME280;20721;47.402;8.550;2022-08-21T06:45:16;96264;;;20.06;65.58
2711;BME280;20721;47.402;8.550;2022-08-21T06:46:16;96265;;;20.09;65.76
2711;BME280;20721;47.402;8.550;2022-08-21T06:47:16;96263;;;20.12;65.54
2711;BME280;20721;47.402;8.550;2022-08-21T06:48:19;96263;;;20.15;65.62
2711;BME280;20721;47.402;8.550;2022-08-21T06:49:21;96262;;;20.16;65.08
2711;BME280;20721;47.402;8.550;2022-08-21T06:51:16;96267;;;20.06;65.18
2711;BME280;20721;47.402;8.550;2022-08-21T06:52:16;96268;;;20.04;65.60
2711;BME280;20721;47.402;8.550;2022-08-21T06:53:17;96264;;;20.00;65.47
2711;BME280;20721;47.402;8.550;2022-08-21T06:54:16;96269;;;19.99;65.56
2711;BME280;20721;47.402;8.550;2022-08-21T06:56:16;96268;;;20.00;65.57
2711;BME280;20721;47.402;8.550;2022-08-21T06:58:16;96262;;;20.03;65.92
2711;BME280;20721;47.402;8.550;2022-08-21T07:00:16;96258;;;20.00;65.41
2711;BME280;20721;47.402;8.550;2022-08-21T07:01:16;96259;;;19.96;65.51
2711;BME280;20721;47.402;8.550;2022-08-21T07:02:16;96257;;;19.93;65.86
2711;BME280;20721;47.402;8.550;2022-08-21T07:03:17;96258;;;19.92;66.09
2711;BME280;20721;47.402;8.550;2022-08-21T07:04:16;96256;;;19.94;66.09
2711;BME280;20721;47.402;8.550;2022-08-21T07:06:16;96257;;;19.96;65.94
2711;BME280;20721;47.402;8.550;2022-08-21T07:07:16;96256;;;19.97;65.70
2711;BME280;20721;47.402;8.550;2022-08-21T07:08:16;96256;;;19.98;65.80
2711;BME280;20721;47.402;8.550;2022-08-21T07:09:16;96259;;;19.97;65.78
2711;BME280;20721;47.402;8.550;2022-08-21T07:10:23;96260;;;20.06;65.80
2711;BME280;20721;47.402;8.550;2022-08-21T07:11:19;96263;;;20.14;65.16
2711;BME280;20721;47.402;8.550;2022-08-21T07:12:16;96260;;;20.20;65.72
2711;BME280;20721;47.402;8.550;2022-08-21T07:13:16;96260;;;20.30;65.15